createdAt,value
2022-12-13T00:02:03.628Z,-2.11
2022-12-13T00:04:30.508Z,-2.09
2022-12-13T00:06:57.824Z,-2.03
2022-12-13T00:09:24.658Z,-1.98
2022-12-13T00:11:52.403Z,-1.94
2022-12-13T00:14:19.148Z,-1.88
2022-12-13T00:16:47.185Z,-1.86
2022-12-13T00:19:15.165Z,-1.86
2022-12-13T00:21:41.989Z,-1.85
2022-12-13T00:24:08.686Z,-1.86
2022-12-13T00:26:36.208Z,-1.85
2022-12-13T00:29:04.809Z,-1.85
2022-12-13T00:34:21.102Z,-1.90
2022-12-13T00:36:48.345Z,-1.94
2022-12-13T00:39:16.831Z,-2.04
2022-12-13T00:41:46.649Z,-2.08
2022-12-13T00:44:13.989Z,-2.06
2022-12-13T00:46:41.241Z,-2.07
2022-12-13T00:49:09.985Z,-2.06
2022-12-13T00:51:36.795Z,-2.03
2022-12-13T00:54:03.825Z,-2.05
2022-12-13T00:56:31.207Z,-2.06
2022-12-13T00:58:58.079Z,-2.08
2022-12-13T01:01:29.606Z,-2.13
2022-12-13T01:03:57.847Z,-2.09
2022-12-13T01:06:37.447Z,-2.03
2022-12-13T01:09:05.426Z,-1.96
2022-12-13T01:11:32.289Z,-1.94
2022-12-13T01:13:59.106Z,-1.93
2022-12-13T01:16:25.959Z,-1.97
2022-12-13T01:18:52.934Z,-2.05
2022-12-13T01:21:22.115Z,-2.11
2022-12-13T01:23:49.288Z,-2.16
2022-12-13T01:26:17.984Z,-2.21
2022-12-13T01:28:44.775Z,-2.24
2022-12-13T01:31:12.992Z,-2.22
2022-12-13T01:33:41.916Z,-2.19
2022-12-13T01:36:10.939Z,-2.22
2022-12-13T01:38:38.410Z,-2.22
2022-12-13T01:41:08.889Z,-2.24
2022-12-13T01:43:44.129Z,-2.28
2022-12-13T01:46:11.052Z,-2.33
2022-12-13T01:48:40.955Z,-2.36
2022-12-13T01:51:10.909Z,-2.38
2022-12-13T01:53:39.774Z,-2.34
2022-12-13T01:56:09.122Z,-2.31
2022-12-13T01:58:37.008Z,-2.28
2022-12-13T02:01:04.027Z,-2.19
2022-12-13T02:03:31.757Z,-2.17
2022-12-13T02:06:13.372Z,-2.17
2022-12-13T02:08:41.582Z,-2.14
2022-12-13T02:11:09.329Z,-2.20
2022-12-13T02:13:38.430Z,-2.20
2022-12-13T02:16:25.583Z,-2.16
2022-12-13T02:19:05.350Z,-2.11
2022-12-13T02:21:35.488Z,-2.06
2022-12-13T02:24:21.360Z,-2.03
2022-12-13T02:26:48.156Z,-2.04
2022-12-13T02:29:30.971Z,-2.07
2022-12-13T02:32:01.089Z,-2.10
2022-12-13T02:34:34.142Z,-2.14
2022-12-13T02:37:17.900Z,-2.22
2022-12-13T02:40:05.506Z,-2.29
2022-12-13T02:42:37.603Z,-2.31
2022-12-13T02:45:10.913Z,-2.34
2022-12-13T02:47:41.867Z,-2.36
2022-12-13T02:50:10.447Z,-2.34
2022-12-13T02:52:38.000Z,-2.40
2022-12-13T02:55:08.533Z,-2.38
2022-12-13T02:57:40.553Z,-2.36
2022-12-13T03:00:21.111Z,-2.32
2022-12-13T03:03:08.433Z,-2.26
2022-12-13T03:06:02.967Z,-2.26
2022-12-13T03:08:41.804Z,-2.29
2022-12-13T03:11:11.314Z,-2.30
2022-12-13T03:13:38.312Z,-2.27
2022-12-13T03:16:23.819Z,-2.25
2022-12-13T03:18:53.359Z,-2.23
2022-12-13T03:21:21.869Z,-2.22
2022-12-13T03:23:48.926Z,-2.25
2022-12-13T03:26:18.549Z,-2.34
2022-12-13T03:28:45.349Z,-2.34
2022-12-13T03:31:12.202Z,-2.29
2022-12-13T03:33:39.240Z,-2.25
2022-12-13T03:36:06.548Z,-2.26
2022-12-13T03:38:34.391Z,-2.22
2022-12-13T03:41:02.741Z,-2.18
2022-12-13T03:43:29.707Z,-2.19
2022-12-13T03:45:56.501Z,-2.19
2022-12-13T03:48:24.164Z,-2.20
2022-12-13T03:50:52.010Z,-2.18
2022-12-13T03:53:32.349Z,-2.14
2022-12-13T03:56:01.695Z,-2.08
2022-12-13T03:58:35.349Z,-2.06
2022-12-13T04:01:04.542Z,-2.06
2022-12-13T04:03:31.228Z,-2.04
2022-12-13T04:05:58.014Z,-2.05
2022-12-13T04:08:24.827Z,-2.04
2022-12-13T04:10:51.657Z,-2.01
2022-12-13T04:13:33.375Z,-1.97
2022-12-13T04:16:00.971Z,-1.96
2022-12-13T04:18:27.969Z,-1.94
2022-12-13T04:20:54.826Z,-1.89
2022-12-13T04:23:21.467Z,-1.88
2022-12-13T04:25:48.307Z,-1.85
2022-12-13T04:28:21.813Z,-1.86
2022-12-13T04:30:53.811Z,-1.88
2022-12-13T04:33:24.465Z,-1.88
2022-12-13T04:35:51.291Z,-1.89
2022-12-13T04:38:18.246Z,-1.89
2022-12-13T04:40:45.043Z,-1.90
2022-12-13T04:43:11.839Z,-1.95
2022-12-13T04:45:38.778Z,-1.97
2022-12-13T04:48:05.915Z,-2.09
2022-12-13T04:50:32.946Z,-2.08
2022-12-13T04:52:59.838Z,-2.10
2022-12-13T04:55:26.709Z,-2.11
2022-12-13T04:57:53.441Z,-2.10
2022-12-13T05:00:22.400Z,-2.07
2022-12-13T05:02:49.456Z,-2.00
2022-12-13T05:05:16.496Z,-1.95
2022-12-13T05:07:43.485Z,-1.98
2022-12-13T05:10:37.469Z,-2.00
2022-12-13T05:13:00.404Z,-2.03
2022-12-13T05:15:27.796Z,-2.10
2022-12-13T05:17:54.602Z,-2.13
2022-12-13T05:20:21.276Z,-2.22
2022-12-13T05:22:48.111Z,-2.22
2022-12-13T05:25:15.032Z,-2.18
2022-12-13T05:27:42.077Z,-2.18
2022-12-13T05:30:09.350Z,-2.18
2022-12-13T05:32:43.524Z,-2.19
2022-12-13T05:35:22.734Z,-2.22
2022-12-13T05:37:54.606Z,-2.19
2022-12-13T05:40:31.938Z,-2.17
2022-12-13T05:43:00.677Z,-2.24
2022-12-13T05:45:29.490Z,-2.23
2022-12-13T05:47:56.234Z,-2.26
2022-12-13T05:50:26.749Z,-2.28
2022-12-13T05:52:54.267Z,-2.28
2022-12-13T05:55:21.085Z,-2.30
2022-12-13T05:57:50.056Z,-2.32
2022-12-13T06:00:30.156Z,-2.26
2022-12-13T06:03:00.568Z,-2.22
2022-12-13T06:05:29.303Z,-2.23
2022-12-13T06:07:57.543Z,-2.24
2022-12-13T06:10:24.903Z,-2.24
2022-12-13T06:13:03.405Z,-2.23
2022-12-13T06:15:34.759Z,-2.23
2022-12-13T06:18:01.902Z,-2.22
2022-12-13T06:20:28.747Z,-2.19
2022-12-13T06:22:55.508Z,-2.12
2022-12-13T06:25:30.726Z,-2.09
2022-12-13T06:28:00.739Z,-2.04
2022-12-13T06:30:28.250Z,-2.00
2022-12-13T06:32:55.594Z,-2.00
2022-12-13T06:35:28.617Z,-2.00
2022-12-13T06:38:01.468Z,-1.97
2022-12-13T06:40:30.532Z,-1.94
2022-12-13T06:42:57.593Z,-1.91
2022-12-13T06:45:24.409Z,-1.89
2022-12-13T06:47:51.220Z,-1.87
2022-12-13T06:50:18.049Z,-1.87
2022-12-13T06:52:46.399Z,-1.84
2022-12-13T06:55:13.750Z,-1.83
2022-12-13T06:57:41.337Z,-1.83
2022-12-13T07:00:09.313Z,-1.81
2022-12-13T07:02:36.396Z,-1.78
2022-12-13T07:05:03.337Z,-1.77
2022-12-13T07:07:31.133Z,-1.75
2022-12-13T07:09:57.988Z,-1.71
2022-12-13T07:12:24.795Z,-1.67
2022-12-13T07:14:52.310Z,-1.62
2022-12-13T07:17:32.320Z,-1.58
2022-12-13T07:20:01.185Z,-1.57
2022-12-13T07:22:28.129Z,-1.56
2022-12-13T07:24:54.895Z,-1.54
2022-12-13T07:27:21.532Z,-1.53
2022-12-13T07:29:49.962Z,-1.52
2022-12-13T07:32:16.666Z,-1.51
2022-12-13T07:34:43.640Z,-1.48
2022-12-13T07:37:30.483Z,-1.46
2022-12-13T07:40:03.287Z,-1.44
2022-12-13T07:42:31.505Z,-1.40
2022-12-13T07:44:58.206Z,-1.37
2022-12-13T07:47:29.493Z,-1.33
2022-12-13T07:49:56.397Z,-1.28
2022-12-13T07:52:23.271Z,-1.19
2022-12-13T07:54:50.127Z,-1.08
2022-12-13T07:57:16.898Z,-0.96
2022-12-13T08:00:15.016Z,-0.65
2022-12-13T08:02:41.955Z,-0.26
2022-12-13T08:05:25.765Z,-0.10
2022-12-13T08:07:54.272Z,-0.06
2022-12-13T08:10:21.170Z,-0.01
2022-12-13T08:12:47.907Z,-0.01
2022-12-13T08:15:14.616Z,-0.06
2022-12-13T08:17:41.451Z,-0.11
2022-12-13T08:20:08.353Z,-0.14
2022-12-13T08:22:35.992Z,-0.19
2022-12-13T08:25:03.038Z,-0.21
2022-12-13T08:27:29.788Z,-0.24
2022-12-13T08:29:56.854Z,-0.27
2022-12-13T08:32:23.695Z,-0.34
2022-12-13T08:34:50.425Z,-0.34
2022-12-13T08:37:17.547Z,-0.29
2022-12-13T08:39:44.776Z,-0.27
2022-12-13T08:42:14.901Z,-0.23
2022-12-13T08:44:44.840Z,-0.25
2022-12-13T08:47:11.543Z,-0.23
2022-12-13T08:49:38.410Z,-0.18
2022-12-13T08:52:05.118Z,-0.15
2022-12-13T08:54:33.207Z,-0.14
2022-12-13T08:57:01.818Z,-0.12
2022-12-13T08:59:28.872Z,-0.11
2022-12-13T09:01:58.767Z,-0.07
2022-12-13T09:04:31.775Z,-0.08
2022-12-13T09:07:01.668Z,-0.08
2022-12-13T09:09:29.486Z,-0.10
2022-12-13T09:11:59.084Z,-0.06
2022-12-13T09:14:34.195Z,-0.01
2022-12-13T09:17:03.477Z,0.01
2022-12-13T09:19:36.956Z,0.05
2022-12-13T09:22:04.393Z,0.10
2022-12-13T09:24:36.251Z,0.16
2022-12-13T09:27:09.346Z,0.22
2022-12-13T09:29:37.395Z,0.29
2022-12-13T09:32:04.456Z,0.35
2022-12-13T09:34:33.311Z,0.28
2022-12-13T09:37:01.753Z,0.25
2022-12-13T09:39:29.075Z,0.28
2022-12-13T09:42:01.393Z,0.35
2022-12-13T09:44:43.965Z,0.36
2022-12-13T09:47:23.216Z,0.39
2022-12-13T09:49:53.767Z,0.47
2022-12-13T09:52:22.706Z,0.47
2022-12-13T09:54:53.400Z,0.43
2022-12-13T09:57:31.447Z,0.37
2022-12-13T10:00:05.631Z,0.37
2022-12-13T10:02:43.435Z,0.38
2022-12-13T10:05:39.553Z,0.44
2022-12-13T10:08:18.313Z,0.44
2022-12-13T10:10:45.506Z,0.49
2022-12-13T10:13:27.767Z,0.59
2022-12-13T10:15:57.517Z,0.71
2022-12-13T10:18:33.263Z,0.80
2022-12-13T10:21:01.640Z,0.86
2022-12-13T10:23:42.794Z,0.85
2022-12-13T10:26:24.305Z,0.85
2022-12-13T10:29:01.131Z,0.85
2022-12-13T10:31:28.073Z,0.85
2022-12-13T10:33:56.216Z,0.83
2022-12-13T10:36:38.605Z,0.85
2022-12-13T10:39:05.349Z,0.87
2022-12-13T10:41:32.075Z,0.86
2022-12-13T10:44:10.089Z,0.84
2022-12-13T10:46:38.581Z,0.89
2022-12-13T10:49:16.154Z,0.95
2022-12-13T10:51:43.125Z,1.02
2022-12-13T10:54:38.398Z,1.05
2022-12-13T10:57:05.576Z,1.09
2022-12-13T10:59:34.162Z,1.09
2022-12-13T11:02:03.955Z,1.08
2022-12-13T11:04:31.894Z,1.08
2022-12-13T11:07:18.615Z,1.09
2022-12-13T11:09:45.540Z,1.11
2022-12-13T11:12:24.576Z,1.07
2022-12-13T11:14:54.673Z,1.04
2022-12-13T11:17:22.835Z,1.03
2022-12-13T11:19:52.159Z,1.04
2022-12-13T11:22:21.148Z,0.99
2022-12-13T11:24:52.063Z,0.96
2022-12-13T11:27:23.662Z,0.94
2022-12-13T11:30:09.293Z,0.92
2022-12-13T11:32:46.489Z,0.85
2022-12-13T11:35:16.528Z,0.84
2022-12-13T11:37:55.343Z,0.85
2022-12-13T11:40:45.156Z,0.88
2022-12-13T11:43:29.432Z,0.90
2022-12-13T11:45:58.502Z,0.91
2022-12-13T11:48:25.708Z,0.94
2022-12-13T11:50:55.408Z,0.93
2022-12-13T11:53:35.211Z,0.94
2022-12-13T11:56:08.045Z,0.92
2022-12-13T11:59:02.460Z,0.89
2022-12-13T12:01:38.406Z,0.90
2022-12-13T12:04:05.782Z,0.90
2022-12-13T12:06:38.752Z,0.90
2022-12-13T12:09:15.012Z,0.90
2022-12-13T12:11:47.548Z,0.88
2022-12-13T12:14:20.720Z,0.87
2022-12-13T12:16:51.420Z,0.86
2022-12-13T12:19:20.826Z,0.88
2022-12-13T12:25:02.247Z,0.94
2022-12-13T12:27:29.106Z,0.89
2022-12-13T12:30:04.449Z,0.76
2022-12-13T12:32:31.306Z,0.65
2022-12-13T12:35:13.137Z,0.60
2022-12-13T12:37:39.983Z,0.57
2022-12-13T12:40:52.138Z,0.48
2022-12-13T12:43:31.331Z,0.44
2022-12-13T12:46:17.100Z,0.41
2022-12-13T12:49:00.335Z,0.41
2022-12-13T12:51:35.076Z,0.37
2022-12-13T12:54:20.933Z,0.33
2022-12-13T12:56:54.068Z,0.30
2022-12-13T12:59:41.054Z,0.32
2022-12-13T13:02:19.584Z,0.36
2022-12-13T13:04:50.535Z,0.40
2022-12-13T13:07:25.475Z,0.38
2022-12-13T13:09:55.083Z,0.39
2022-12-13T13:12:30.456Z,0.37
2022-12-13T13:14:58.265Z,0.26
2022-12-13T13:17:24.946Z,0.19
2022-12-13T13:20:12.337Z,0.12
2022-12-13T13:22:44.275Z,0.01
2022-12-13T13:25:20.797Z,0.01
2022-12-13T13:27:50.894Z,0.04
2022-12-13T13:30:22.029Z,0.08
2022-12-13T13:32:49.717Z,0.15
2022-12-13T13:35:32.635Z,0.20
2022-12-13T13:38:00.916Z,0.21
2022-12-13T13:40:31.001Z,0.21
2022-12-13T13:43:02.897Z,0.22
2022-12-13T13:45:29.995Z,0.23
2022-12-13T13:47:56.679Z,0.25
2022-12-13T13:50:44.002Z,0.26
2022-12-13T13:53:33.621Z,0.20
2022-12-13T13:56:36.378Z,0.10
2022-12-13T13:59:03.957Z,0.04
2022-12-13T14:01:49.481Z,0.03
2022-12-13T14:04:28.809Z,0.03
2022-12-13T14:07:00.716Z,0.04
2022-12-13T14:09:47.443Z,0.05
2022-12-13T14:12:23.639Z,0.08
2022-12-13T14:15:09.457Z,0.05
2022-12-13T14:18:11.329Z,0.01
2022-12-13T14:20:45.824Z,0.02
2022-12-13T14:23:35.960Z,-0.01
2022-12-13T14:26:18.750Z,-0.04
2022-12-13T14:28:45.594Z,-0.05
2022-12-13T14:31:21.863Z,-0.06
2022-12-13T14:33:52.110Z,-0.09
2022-12-13T14:36:26.319Z,-0.15
2022-12-13T14:39:00.400Z,-0.17
2022-12-13T14:41:27.226Z,-0.18
2022-12-13T14:43:54.087Z,-0.20
2022-12-13T14:46:21.025Z,-0.21
2022-12-13T14:48:53.314Z,-0.17
2022-12-13T14:51:28.668Z,-0.14
2022-12-13T14:53:55.817Z,-0.14
2022-12-13T14:56:27.557Z,-0.18
2022-12-13T14:59:00.135Z,-0.20
2022-12-13T15:01:30.175Z,-0.18
2022-12-13T15:04:15.774Z,-0.15
2022-12-13T15:06:48.416Z,-0.20
2022-12-13T15:09:16.421Z,-0.26
2022-12-13T15:11:44.306Z,-0.28
2022-12-13T15:14:16.398Z,-0.27
2022-12-13T15:16:47.788Z,-0.31
2022-12-13T15:19:29.466Z,-0.27
2022-12-13T15:22:14.843Z,-0.20
2022-12-13T15:24:48.855Z,-0.16
2022-12-13T15:27:26.685Z,-0.18
2022-12-13T15:29:56.696Z,-0.21
2022-12-13T15:32:23.550Z,-0.24
2022-12-13T15:34:51.684Z,-0.25
2022-12-13T15:37:28.298Z,-0.26
2022-12-13T15:39:59.233Z,-0.27
2022-12-13T15:42:35.368Z,-0.22
2022-12-13T15:45:05.263Z,-0.21
2022-12-13T15:47:32.555Z,-0.19
2022-12-13T15:50:01.165Z,-0.19
2022-12-13T15:52:34.208Z,-0.16
2022-12-13T15:55:07.174Z,-0.17
2022-12-13T15:57:35.700Z,-0.17
2022-12-13T16:00:05.540Z,-0.16
2022-12-13T16:02:48.631Z,-0.14
2022-12-13T16:05:23.079Z,-0.12
2022-12-13T16:07:56.396Z,-0.14
2022-12-13T16:10:25.305Z,-0.15
2022-12-13T16:12:53.701Z,-0.18
2022-12-13T16:15:48.270Z,-0.20
2022-12-13T16:18:44.911Z,-0.22
2022-12-13T16:21:12.257Z,-0.22
2022-12-13T16:23:48.818Z,-0.21
2022-12-13T16:26:21.769Z,-0.19
2022-12-13T16:28:48.601Z,-0.20
2022-12-13T16:31:21.161Z,-0.20
2022-12-13T16:33:48.197Z,-0.18
2022-12-13T16:36:15.141Z,-0.19
2022-12-13T16:38:41.958Z,-0.17
2022-12-13T16:41:09.472Z,-0.16
2022-12-13T16:43:39.967Z,-0.15
2022-12-13T16:47:14.616Z,-0.16
2022-12-13T16:48:54.682Z,-0.17
2022-12-13T16:51:22.112Z,-0.16
2022-12-13T16:53:49.113Z,-0.16
2022-12-13T16:56:21.820Z,-0.13
2022-12-13T16:58:50.525Z,-0.13
2022-12-13T17:01:21.066Z,-0.17
2022-12-13T17:03:48.325Z,-0.22
2022-12-13T17:06:16.089Z,-0.29
2022-12-13T17:08:42.911Z,-0.31
2022-12-13T17:11:17.815Z,-0.36
2022-12-13T17:13:47.753Z,-0.40
2022-12-13T17:16:14.907Z,-0.41
2022-12-13T17:18:42.677Z,-0.41
2022-12-13T17:21:10.235Z,-0.37
2022-12-13T17:23:37.469Z,-0.36
2022-12-13T17:26:08.196Z,-0.37
2022-12-13T17:28:35.256Z,-0.41
2022-12-13T17:31:09.019Z,-0.41
2022-12-13T17:33:36.679Z,-0.40
2022-12-13T17:36:06.533Z,-0.40
2022-12-13T17:38:33.456Z,-0.36
2022-12-13T17:41:00.719Z,-0.33
2022-12-13T17:43:34.403Z,-0.30
2022-12-13T17:46:06.978Z,-0.27
2022-12-13T17:48:40.397Z,-0.24
2022-12-13T17:51:08.587Z,-0.28
2022-12-13T17:53:36.191Z,-0.29
2022-12-13T17:56:06.046Z,-0.27
2022-12-13T17:58:33.057Z,-0.22
2022-12-13T18:01:09.477Z,-0.20
2022-12-13T18:03:37.154Z,-0.20
2022-12-13T18:06:03.914Z,-0.19
2022-12-13T18:08:34.024Z,-0.17
2022-12-13T18:11:32.332Z,-0.17
2022-12-13T18:13:47.976Z,-0.22
2022-12-13T18:16:22.413Z,-0.26
2022-12-13T18:18:54.971Z,-0.26
2022-12-13T18:21:23.521Z,-0.23
2022-12-13T18:23:54.738Z,-0.26
2022-12-13T18:26:24.186Z,-0.30
2022-12-13T18:28:51.126Z,-0.34
2022-12-13T18:31:20.246Z,-0.35
2022-12-13T18:33:48.047Z,-0.32
2022-12-13T18:36:16.652Z,-0.28
2022-12-13T18:38:43.529Z,-0.24
2022-12-13T18:41:12.681Z,-0.25
2022-12-13T18:43:39.443Z,-0.26
2022-12-13T18:46:06.573Z,-0.31
2022-12-13T18:48:33.895Z,-0.36
2022-12-13T18:51:01.132Z,-0.39
2022-12-13T18:53:28.724Z,-0.39
2022-12-13T18:56:02.731Z,-0.38
2022-12-13T18:58:29.564Z,-0.40
2022-12-13T19:00:57.448Z,-0.44
2022-12-13T19:03:26.112Z,-0.44
2022-12-13T19:05:53.238Z,-0.47
2022-12-13T19:08:20.056Z,-0.43
2022-12-13T19:10:48.022Z,-0.41
2022-12-13T19:13:15.588Z,-0.40
2022-12-13T19:15:42.544Z,-0.39
2022-12-13T19:18:11.581Z,-0.39
2022-12-13T19:20:44.529Z,-0.39
2022-12-13T19:23:11.391Z,-0.39
2022-12-13T19:25:38.546Z,-0.39
2022-12-13T19:28:05.406Z,-0.40
2022-12-13T19:30:32.237Z,-0.40
2022-12-13T19:32:58.971Z,-0.37
2022-12-13T19:35:26.210Z,-0.35
2022-12-13T19:37:53.424Z,-0.31
2022-12-13T19:40:20.207Z,-0.29
2022-12-13T19:42:47.978Z,-0.26
2022-12-13T19:45:14.935Z,-0.28
2022-12-13T19:47:42.527Z,-0.31
2022-12-13T19:50:13.498Z,-0.30
2022-12-13T19:52:40.247Z,-0.32
2022-12-13T19:55:07.509Z,-0.34
2022-12-13T19:57:34.303Z,-0.29
2022-12-13T20:00:02.022Z,-0.28
2022-12-13T20:02:29.560Z,-0.23
2022-12-13T20:04:56.325Z,-0.21
2022-12-13T20:07:24.044Z,-0.19
2022-12-13T20:09:50.937Z,-0.21
2022-12-13T20:12:17.656Z,-0.24
2022-12-13T20:14:44.500Z,-0.32
2022-12-13T20:17:11.301Z,-0.36
2022-12-13T20:19:38.107Z,-0.41
2022-12-13T20:22:05.598Z,-0.41
2022-12-13T20:24:32.415Z,-0.43
2022-12-13T20:26:59.130Z,-0.43
2022-12-13T20:29:25.933Z,-0.45
2022-12-13T20:31:53.980Z,-0.45
2022-12-13T20:34:20.899Z,-0.48
2022-12-13T20:36:47.693Z,-0.51
2022-12-13T20:39:15.590Z,-0.54
2022-12-13T20:41:42.434Z,-0.53
2022-12-13T20:44:11.275Z,-0.52
2022-12-13T20:46:38.263Z,-0.53
2022-12-13T20:49:06.545Z,-0.56
2022-12-13T20:51:34.700Z,-0.57
2022-12-13T20:54:02.789Z,-0.54
2022-12-13T20:56:32.355Z,-0.49
2022-12-13T20:58:59.215Z,-0.48
2022-12-13T21:01:28.693Z,-0.47
2022-12-13T21:03:56.538Z,-0.42
2022-12-13T21:06:23.768Z,-0.37
2022-12-13T21:09:00.174Z,-0.36
2022-12-13T21:11:29.063Z,-0.38
2022-12-13T21:14:07.425Z,-0.38
2022-12-13T21:16:39.312Z,-0.36
2022-12-13T21:19:07.385Z,-0.36
2022-12-13T21:21:34.828Z,-0.35
2022-12-13T21:24:03.315Z,-0.40
2022-12-13T21:26:35.366Z,-0.44
2022-12-13T21:29:05.459Z,-0.46
2022-12-13T21:31:32.515Z,-0.46
2022-12-13T21:34:01.298Z,-0.46
2022-12-13T21:36:29.534Z,-0.49
2022-12-13T21:38:57.807Z,-0.50
2022-12-13T21:41:25.094Z,-0.48
2022-12-13T21:43:52.252Z,-0.43
2022-12-13T21:46:20.220Z,-0.39
2022-12-13T21:48:47.984Z,-0.35
2022-12-13T21:51:16.010Z,-0.35
2022-12-13T21:53:44.056Z,-0.36
2022-12-13T21:56:30.557Z,-0.34
2022-12-13T21:59:15.679Z,-0.36
2022-12-13T22:02:03.159Z,-0.38
2022-12-13T22:04:30.118Z,-0.32
2022-12-13T22:06:56.880Z,-0.28
2022-12-13T22:09:23.768Z,-0.28
2022-12-13T22:11:50.515Z,-0.30
2022-12-13T22:14:17.584Z,-0.30
2022-12-13T22:16:44.595Z,-0.32
2022-12-13T22:19:14.852Z,-0.33
2022-12-13T22:21:42.165Z,-0.32
2022-12-13T22:24:09.440Z,-0.35
2022-12-13T22:26:37.235Z,-0.35
2022-12-13T22:29:04.167Z,-0.30
2022-12-13T22:31:31.895Z,-0.24
2022-12-13T22:33:58.656Z,-0.17
2022-12-13T22:36:25.699Z,-0.14
2022-12-13T22:38:53.089Z,-0.14
2022-12-13T22:41:22.186Z,-0.16
2022-12-13T22:43:49.043Z,-0.20
2022-12-13T22:46:17.418Z,-0.24
2022-12-13T22:48:44.471Z,-0.28
2022-12-13T22:51:13.175Z,-0.31
2022-12-13T22:53:40.794Z,-0.29
2022-12-13T22:56:10.057Z,-0.30
2022-12-13T22:58:37.540Z,-0.32
2022-12-13T23:01:12.511Z,-0.35
2022-12-13T23:03:40.461Z,-0.33
2022-12-13T23:06:10.326Z,-0.28
2022-12-13T23:08:43.189Z,-0.22
2022-12-13T23:11:29.260Z,-0.20
2022-12-13T23:13:57.306Z,-0.19
2022-12-13T23:16:25.364Z,-0.23
2022-12-13T23:19:10.654Z,-0.28
2022-12-13T23:21:40.735Z,-0.29
2022-12-13T23:24:07.544Z,-0.34
2022-12-13T23:26:34.412Z,-0.33
2022-12-13T23:29:02.772Z,-0.37
2022-12-13T23:31:31.038Z,-0.39
2022-12-13T23:33:57.724Z,-0.36
2022-12-13T23:36:25.428Z,-0.32
2022-12-13T23:38:52.209Z,-0.31
2022-12-13T23:41:23.672Z,-0.35
2022-12-13T23:43:51.694Z,-0.35
2022-12-13T23:46:19.776Z,-0.36
2022-12-13T23:48:46.927Z,-0.40
2022-12-13T23:51:14.725Z,-0.43
2022-12-13T23:53:41.782Z,-0.45
2022-12-13T23:56:09.889Z,-0.44
2022-12-13T23:58:38.682Z,-0.40
